sensor_id;sensor_type;location;lat;lon;timestamp;pressure;altitude;pressure_sealevel;temperature;humidity
49515;BME280;35415;47.870;16.058;2023-03-13T00:00:58;97157.34;;;4.34;87.22
49515;BME280;35415;47.870;16.058;2023-03-13T00:03:27;97190.97;;;4.58;86.91
49515;BME280;35415;47.870;16.058;2023-03-13T00:05:55;97197.22;;;4.64;86.55
49515;BME280;35415;47.870;16.058;2023-03-13T00:08:24;97235.56;;;4.86;88.86
49515;BME280;35415;47.870;16.058;2023-03-13T00:10:55;97130.84;;;4.27;86.95
49515;BME280;35415;47.870;16.058;2023-03-13T00:13:22;97178.81;;;4.62;86.78
49515;BME280;35415;47.870;16.058;2023-03-13T00:15:59;97203.59;;;4.86;87.49
49515;BME280;35415;47.870;16.058;2023-03-13T00:18:30;97209.75;;;4.75;86.51
49515;BME280;35415;47.870;16.058;2023-03-13T00:20:58;97148.44;;;4.51;86.49
49515;BME280;35415;47.870;16.058;2023-03-13T00:23:28;97198.50;;;4.84;88.35
49515;BME280;35415;47.870;16.058;2023-03-13T00:25:59;97209.63;;;4.81;88.61
49515;BME280;35415;47.870;16.058;2023-03-13T00:28:28;97147.41;;;4.52;88.86
49515;BME280;35415;47.870;16.058;2023-03-13T00:31:03;97159.22;;;4.68;88.69
49515;BME280;35415;47.870;16.058;2023-03-13T00:33:32;97137.22;;;4.49;88.90
49515;BME280;35415;47.870;16.058;2023-03-13T00:36:01;97160.75;;;4.64;88.94
49515;BME280;35415;47.870;16.058;2023-03-13T00:38:32;97137.13;;;4.44;88.18
49515;BME280;35415;47.870;16.058;2023-03-13T00:41:01;97170.81;;;4.74;87.64
49515;BME280;35415;47.870;16.058;2023-03-13T00:43:29;97182.97;;;4.81;87.55
49515;BME280;35415;47.870;16.058;2023-03-13T00:45:57;97195.81;;;4.84;88.44
49515;BME280;35415;47.870;16.058;2023-03-13T00:48:25;97185.88;;;4.80;89.00
49515;BME280;35415;47.870;16.058;2023-03-13T00:50:56;97085.91;;;4.19;88.15
49515;BME280;35415;47.870;16.058;2023-03-13T00:53:24;97133.28;;;4.52;88.42
49515;BME280;35415;47.870;16.058;2023-03-13T00:55:58;97174.97;;;4.81;88.65
49515;BME280;35415;47.870;16.058;2023-03-13T00:58:29;97119.28;;;4.45;87.69
49515;BME280;35415;47.870;16.058;2023-03-13T01:01:06;97168.84;;;4.81;87.19
49515;BME280;35415;47.870;16.058;2023-03-13T01:03:35;97093.00;;;4.25;89.08
49515;BME280;35415;47.870;16.058;2023-03-13T01:06:08;97131.09;;;4.61;89.27
49515;BME280;35415;47.870;16.058;2023-03-13T01:08:36;97169.78;;;4.75;87.73
49515;BME280;35415;47.870;16.058;2023-03-13T01:11:06;97135.28;;;4.57;89.83
49515;BME280;35415;47.870;16.058;2023-03-13T01:13:35;97108.06;;;4.43;89.21
49515;BME280;35415;47.870;16.058;2023-03-13T01:16:04;97158.31;;;4.63;89.18
49515;BME280;35415;47.870;16.058;2023-03-13T01:18:33;97123.09;;;4.49;88.76
49515;BME280;35415;47.870;16.058;2023-03-13T01:21:02;97153.91;;;4.68;88.53
49515;BME280;35415;47.870;16.058;2023-03-13T01:23:29;97103.28;;;4.33;87.82
49515;BME280;35415;47.870;16.058;2023-03-13T01:25:57;97125.19;;;4.47;88.90
49515;BME280;35415;47.870;16.058;2023-03-13T01:28:26;97120.78;;;4.41;89.92
49515;BME280;35415;47.870;16.058;2023-03-13T01:30:53;97092.66;;;4.21;88.96
49515;BME280;35415;47.870;16.058;2023-03-13T01:33:23;97100.75;;;4.27;87.89
49515;BME280;35415;47.870;16.058;2023-03-13T01:35:52;97126.22;;;4.46;89.35
49515;BME280;35415;47.870;16.058;2023-03-13T01:38:19;97101.09;;;4.30;87.93
49515;BME280;35415;47.870;16.058;2023-03-13T01:40:48;97140.22;;;4.53;88.97
49515;BME280;35415;47.870;16.058;2023-03-13T01:43:18;97069.16;;;4.07;89.01
49515;BME280;35415;47.870;16.058;2023-03-13T01:45:57;97132.72;;;4.50;87.94
49515;BME280;35415;47.870;16.058;2023-03-13T01:48:30;97068.13;;;4.08;87.48
49515;BME280;35415;47.870;16.058;2023-03-13T01:51:01;97135.84;;;4.47;86.79
49515;BME280;35415;47.870;16.058;2023-03-13T01:53:32;97036.84;;;3.80;87.21
49515;BME280;35415;47.870;16.058;2023-03-13T01:56:03;97072.50;;;4.02;88.46
49515;BME280;35415;47.870;16.058;2023-03-13T01:58:32;97062.09;;;3.89;88.57
49515;BME280;35415;47.870;16.058;2023-03-13T02:01:01;97101.56;;;4.15;89.71
49515;BME280;35415;47.870;16.058;2023-03-13T02:03:30;97036.81;;;3.68;88.94
49515;BME280;35415;47.870;16.058;2023-03-13T02:05:59;97084.19;;;3.89;88.37
49515;BME280;35415;47.870;16.058;2023-03-13T02:08:31;97123.88;;;4.14;88.10
49515;BME280;35415;47.870;16.058;2023-03-13T02:11:09;97140.66;;;4.15;88.08
49515;BME280;35415;47.870;16.058;2023-03-13T02:13:39;97100.72;;;3.91;87.41
49515;BME280;35415;47.870;16.058;2023-03-13T02:16:08;97067.13;;;3.67;87.73
49515;BME280;35415;47.870;16.058;2023-03-13T02:18:38;97103.50;;;3.97;87.41
49515;BME280;35415;47.870;16.058;2023-03-13T02:21:10;97072.00;;;3.70;88.29
49515;BME280;35415;47.870;16.058;2023-03-13T02:23:46;97068.75;;;3.68;87.81
49515;BME280;35415;47.870;16.058;2023-03-13T02:26:18;97058.44;;;3.60;88.42
49515;BME280;35415;47.870;16.058;2023-03-13T02:28:46;97039.22;;;3.46;88.60
49515;BME280;35415;47.870;16.058;2023-03-13T02:31:16;97080.81;;;3.71;88.99
49515;BME280;35415;47.870;16.058;2023-03-13T02:33:44;97039.97;;;3.35;88.90
49515;BME280;35415;47.870;16.058;2023-03-13T02:36:14;97094.53;;;3.68;90.43
49515;BME280;35415;47.870;16.058;2023-03-13T02:38:50;97125.38;;;3.87;89.53
49515;BME280;35415;47.870;16.058;2023-03-13T02:41:22;97115.50;;;3.76;89.80
49515;BME280;35415;47.870;16.058;2023-03-13T02:43:50;97079.84;;;3.53;90.24
49515;BME280;35415;47.870;16.058;2023-03-13T02:46:19;97081.06;;;3.39;89.92
49515;BME280;35415;47.870;16.058;2023-03-13T02:48:48;97128.44;;;3.72;89.37
49515;BME280;35415;47.870;16.058;2023-03-13T02:51:23;97102.94;;;3.53;90.74
49515;BME280;35415;47.870;16.058;2023-03-13T02:53:57;97075.59;;;3.34;90.70
49515;BME280;35415;47.870;16.058;2023-03-13T02:56:30;97120.38;;;3.49;90.88
49515;BME280;35415;47.870;16.058;2023-03-13T02:58:59;97132.22;;;3.65;90.71
49515;BME280;35415;47.870;16.058;2023-03-13T03:01:27;97072.03;;;3.10;90.57
49515;BME280;35415;47.870;16.058;2023-03-13T03:03:55;97137.88;;;3.56;91.64
49515;BME280;35415;47.870;16.058;2023-03-13T03:06:22;97105.88;;;3.33;92.62
49515;BME280;35415;47.870;16.058;2023-03-13T03:08:50;97077.81;;;3.07;92.43
49515;BME280;35415;47.870;16.058;2023-03-13T03:11:17;97087.28;;;3.15;91.44
49515;BME280;35415;47.870;16.058;2023-03-13T03:13:46;97138.34;;;3.35;92.25
49515;BME280;35415;47.870;16.058;2023-03-13T03:16:14;97127.41;;;3.43;93.69
49515;BME280;35415;47.870;16.058;2023-03-13T03:18:43;97156.78;;;3.48;94.66
49515;BME280;35415;47.870;16.058;2023-03-13T03:21:11;97149.72;;;3.42;95.29
49515;BME280;35415;47.870;16.058;2023-03-13T03:23:38;97076.94;;;2.95;95.83
49515;BME280;35415;47.870;16.058;2023-03-13T03:26:06;97095.66;;;3.00;95.95
49515;BME280;35415;47.870;16.058;2023-03-13T03:28:34;97129.78;;;3.33;96.54
49515;BME280;35415;47.870;16.058;2023-03-13T03:31:08;97125.38;;;3.27;95.22
49515;BME280;35415;47.870;16.058;2023-03-13T03:33:36;97166.72;;;3.41;95.74
49515;BME280;35415;47.870;16.058;2023-03-13T03:36:05;97127.53;;;3.18;95.91
49515;BME280;35415;47.870;16.058;2023-03-13T03:38:35;97149.88;;;3.29;96.54
49515;BME280;35415;47.870;16.058;2023-03-13T03:41:04;97111.25;;;2.96;96.50
49515;BME280;35415;47.870;16.058;2023-03-13T03:43:32;97058.22;;;2.71;96.01
49515;BME280;35415;47.870;16.058;2023-03-13T03:46:02;97072.66;;;2.76;96.13
49515;BME280;35415;47.870;16.058;2023-03-13T03:48:31;97173.88;;;3.41;95.63
49515;BME280;35415;47.870;16.058;2023-03-13T03:50:59;97118.38;;;3.14;96.75
49515;BME280;35415;47.870;16.058;2023-03-13T03:53:29;97147.97;;;3.36;96.63
49515;BME280;35415;47.870;16.058;2023-03-13T03:55:57;97083.41;;;2.99;96.94
49515;BME280;35415;47.870;16.058;2023-03-13T03:58:24;97091.97;;;3.01;97.07
49515;BME280;35415;47.870;16.058;2023-03-13T04:00:51;97100.97;;;3.00;97.41
49515;BME280;35415;47.870;16.058;2023-03-13T04:03:19;97071.13;;;2.86;97.53
49515;BME280;35415;47.870;16.058;2023-03-13T04:05:55;97102.81;;;2.99;98.03
49515;BME280;35415;47.870;16.058;2023-03-13T04:08:23;97095.22;;;3.03;98.42
49515;BME280;35415;47.870;16.058;2023-03-13T04:10:51;97137.84;;;3.26;97.93
49515;BME280;35415;47.870;16.058;2023-03-13T04:13:19;97141.22;;;3.33;98.96
49515;BME280;35415;47.870;16.058;2023-03-13T04:15:46;97109.47;;;3.09;98.97
49515;BME280;35415;47.870;16.058;2023-03-13T04:18:14;97165.00;;;3.47;98.72
49515;BME280;35415;47.870;16.058;2023-03-13T04:20:41;97152.03;;;3.39;99.08
49515;BME280;35415;47.870;16.058;2023-03-13T04:23:11;97150.75;;;3.41;99.30
49515;BME280;35415;47.870;16.058;2023-03-13T04:25:38;97073.47;;;2.94;99.25
49515;BME280;35415;47.870;16.058;2023-03-13T04:28:05;97079.81;;;2.93;98.92
49515;BME280;35415;47.870;16.058;2023-03-13T04:30:33;97127.00;;;3.28;99.83
49515;BME280;35415;47.870;16.058;2023-03-13T04:33:00;97151.13;;;3.45;99.07
49515;BME280;35415;47.870;16.058;2023-03-13T04:35:28;97085.41;;;3.04;99.29
49515;BME280;35415;47.870;16.058;2023-03-13T04:37:56;97152.84;;;3.39;99.34
49515;BME280;35415;47.870;16.058;2023-03-13T04:40:28;97086.28;;;2.97;99.22
49515;BME280;35415;47.870;16.058;2023-03-13T04:42:56;97076.47;;;2.98;99.36
49515;BME280;35415;47.870;16.058;2023-03-13T04:45:24;97098.84;;;3.09;99.57
49515;BME280;35415;47.870;16.058;2023-03-13T04:47:52;97064.16;;;3.04;99.51
49515;BME280;35415;47.870;16.058;2023-03-13T04:50:20;97055.00;;;2.99;99.83
49515;BME280;35415;47.870;16.058;2023-03-13T04:52:48;97080.66;;;3.24;99.50
49515;BME280;35415;47.870;16.058;2023-03-13T04:55:15;97088.09;;;3.15;99.58
49515;BME280;35415;47.870;16.058;2023-03-13T04:57:44;97049.09;;;2.97;99.58
49515;BME280;35415;47.870;16.058;2023-03-13T05:00:13;97056.03;;;2.98;99.44
49515;BME280;35415;47.870;16.058;2023-03-13T05:02:41;97121.09;;;3.56;100.00
49515;BME280;35415;47.870;16.058;2023-03-13T05:05:08;97121.09;;;3.56;100.00
49515;BME280;35415;47.870;16.058;2023-03-13T05:07:36;97082.75;;;3.33;100.00
49515;BME280;35415;47.870;16.058;2023-03-13T05:10:04;97049.50;;;3.13;100.00
49515;BME280;35415;47.870;16.058;2023-03-13T05:12:32;97040.63;;;3.19;100.00
49515;BME280;35415;47.870;16.058;2023-03-13T05:15:04;97095.63;;;3.48;100.00
49515;BME280;35415;47.870;16.058;2023-03-13T05:17:32;97106.91;;;3.62;100.00
49515;BME280;35415;47.870;16.058;2023-03-13T05:20:00;97103.31;;;3.68;100.00
49515;BME280;35415;47.870;16.058;2023-03-13T05:22:27;97048.06;;;3.28;100.00
49515;BME280;35415;47.870;16.058;2023-03-13T05:24:58;97039.28;;;3.28;100.00
49515;BME280;35415;47.870;16.058;2023-03-13T05:27:27;97092.91;;;3.55;100.00
49515;BME280;35415;47.870;16.058;2023-03-13T05:29:55;97079.22;;;3.51;100.00
49515;BME280;35415;47.870;16.058;2023-03-13T05:32:29;97097.63;;;3.53;100.00
49515;BME280;35415;47.870;16.058;2023-03-13T05:34:59;97035.34;;;3.30;100.00
49515;BME280;35415;47.870;16.058;2023-03-13T05:37:27;97074.94;;;3.39;100.00
49515;BME280;35415;47.870;16.058;2023-03-13T05:39:55;97086.31;;;3.57;100.00
49515;BME280;35415;47.870;16.058;2023-03-13T05:42:23;97088.16;;;3.69;100.00
49515;BME280;35415;47.870;16.058;2023-03-13T05:44:53;97092.03;;;3.73;100.00
49515;BME280;35415;47.870;16.058;2023-03-13T05:47:20;97091.56;;;3.76;100.00
49515;BME280;35415;47.870;16.058;2023-03-13T05:49:50;97091.09;;;3.79;100.00
49515;BME280;35415;47.870;16.058;2023-03-13T05:52:18;96990.81;;;3.14;100.00
49515;BME280;35415;47.870;16.058;2023-03-13T05:54:52;97103.94;;;3.82;100.00
49515;BME280;35415;47.870;16.058;2023-03-13T05:57:19;97085.66;;;3.85;100.00
49515;BME280;35415;47.870;16.058;2023-03-13T05:59:47;97083.13;;;3.90;100.00
49515;BME280;35415;47.870;16.058;2023-03-13T06:02:20;97051.19;;;3.79;100.00
49515;BME280;35415;47.870;16.058;2023-03-13T06:04:51;97001.28;;;3.51;100.00
49515;BME280;35415;47.870;16.058;2023-03-13T06:07:18;96997.50;;;3.58;100.00
49515;BME280;35415;47.870;16.058;2023-03-13T06:09:48;97010.13;;;3.63;100.00
49515;BME280;35415;47.870;16.058;2023-03-13T06:12:30;96989.41;;;3.53;100.00
49515;BME280;35415;47.870;16.058;2023-03-13T06:15:04;96979.34;;;3.55;99.78
49515;BME280;35415;47.870;16.058;2023-03-13T06:17:36;96991.50;;;3.63;99.75
49515;BME280;35415;47.870;16.058;2023-03-13T06:20:20;97008.63;;;3.79;99.65
49515;BME280;35415;47.870;16.058;2023-03-13T06:50:20;96970.97;;;4.45;100.00
49515;BME280;35415;47.870;16.058;2023-03-13T06:52:48;96964.91;;;4.50;99.34
49515;BME280;35415;47.870;16.058;2023-03-13T06:55:16;96978.13;;;4.85;98.18
49515;BME280;35415;47.870;16.058;2023-03-13T06:57:56;97005.97;;;5.06;97.38
49515;BME280;35415;47.870;16.058;2023-03-13T07:00:24;97021.84;;;5.29;97.00
49515;BME280;35415;47.870;16.058;2023-03-13T07:02:54;96911.66;;;4.78;96.34
49515;BME280;35415;47.870;16.058;2023-03-13T07:05:24;96981.78;;;5.24;95.67
49515;BME280;35415;47.870;16.058;2023-03-13T07:08:39;96932.03;;;5.01;95.31
49515;BME280;35415;47.870;16.058;2023-03-13T07:11:05;96965.94;;;5.34;95.09
49515;BME280;35415;47.870;16.058;2023-03-13T07:13:40;96912.50;;;5.12;94.52
49515;BME280;35415;47.870;16.058;2023-03-13T07:16:18;96940.50;;;5.43;94.23
49515;BME280;35415;47.870;16.058;2023-03-13T07:18:52;96925.13;;;5.34;93.71
49515;BME280;35415;47.870;16.058;2023-03-13T07:21:21;96887.66;;;5.24;93.80
49515;BME280;35415;47.870;16.058;2023-03-13T07:23:50;96973.31;;;5.78;93.49
49515;BME280;35415;47.870;16.058;2023-03-13T07:26:21;96965.56;;;5.76;93.12
49515;BME280;35415;47.870;16.058;2023-03-13T07:28:48;96912.69;;;5.56;92.80
49515;BME280;35415;47.870;16.058;2023-03-13T07:31:20;96912.59;;;5.51;92.56
49515;BME280;35415;47.870;16.058;2023-03-13T07:33:48;96929.56;;;5.79;92.58
49515;BME280;35415;47.870;16.058;2023-03-13T07:36:24;96959.06;;;6.06;92.36
49515;BME280;35415;47.870;16.058;2023-03-13T07:38:52;96902.97;;;5.67;92.45
49515;BME280;35415;47.870;16.058;2023-03-13T07:41:19;96902.94;;;5.84;92.72
49515;BME280;35415;47.870;16.058;2023-03-13T07:43:53;96933.56;;;6.15;92.44
49515;BME280;35415;47.870;16.058;2023-03-13T07:46:23;96902.66;;;6.02;92.60
49515;BME280;35415;47.870;16.058;2023-03-13T07:48:51;96866.44;;;6.06;91.66
49515;BME280;35415;47.870;16.058;2023-03-13T07:51:24;96862.00;;;6.17;90.94
49515;BME280;35415;47.870;16.058;2023-03-13T07:53:52;96876.56;;;6.26;90.22
49515;BME280;35415;47.870;16.058;2023-03-13T07:56:21;96928.41;;;6.74;89.53
49515;BME280;35415;47.870;16.058;2023-03-13T07:58:59;96886.88;;;6.66;88.55
49515;BME280;35415;47.870;16.058;2023-03-13T08:01:27;96922.69;;;6.92;87.90
49515;BME280;35415;47.870;16.058;2023-03-13T08:03:58;96925.81;;;7.11;87.54
49515;BME280;35415;47.870;16.058;2023-03-13T08:06:47;96903.22;;;6.97;87.27
49515;BME280;35415;47.870;16.058;2023-03-13T08:09:18;96866.59;;;6.97;86.12
49515;BME280;35415;47.870;16.058;2023-03-13T08:11:46;96937.94;;;7.50;86.21
49515;BME280;35415;47.870;16.058;2023-03-13T08:14:20;96910.31;;;7.40;86.12
49515;BME280;35415;47.870;16.058;2023-03-13T08:16:56;96889.63;;;7.35;86.06
49515;BME280;35415;47.870;16.058;2023-03-13T08:19:28;96846.13;;;7.13;85.99
49515;BME280;35415;47.870;16.058;2023-03-13T08:46:24;96881.75;;;8.50;81.11
49515;BME280;35415;47.870;16.058;2023-03-13T08:48:55;96880.94;;;8.50;80.21
49515;BME280;35415;47.870;16.058;2023-03-13T08:51:26;96849.56;;;8.45;80.14
49515;BME280;35415;47.870;16.058;2023-03-13T08:53:56;96913.19;;;8.80;80.21
49515;BME280;35415;47.870;16.058;2023-03-13T08:56:43;96822.47;;;8.36;79.56
49515;BME280;35415;47.870;16.058;2023-03-13T08:59:14;96884.78;;;8.84;79.15
49515;BME280;35415;47.870;16.058;2023-03-13T09:01:46;96901.69;;;9.00;79.61
49515;BME280;35415;47.870;16.058;2023-03-13T09:04:18;96842.09;;;8.67;79.67
49515;BME280;35415;47.870;16.058;2023-03-13T09:06:48;96839.19;;;8.74;79.36
49515;BME280;35415;47.870;16.058;2023-03-13T09:09:16;96833.25;;;8.67;79.51
49515;BME280;35415;47.870;16.058;2023-03-13T09:11:43;96848.59;;;8.92;79.33
49515;BME280;35415;47.870;16.058;2023-03-13T09:14:11;96806.44;;;8.72;79.22
49515;BME280;35415;47.870;16.058;2023-03-13T09:16:42;96860.69;;;9.10;78.58
49515;BME280;35415;47.870;16.058;2023-03-13T09:19:12;96860.94;;;9.18;78.12
49515;BME280;35415;47.870;16.058;2023-03-13T09:21:40;96835.19;;;9.17;77.71
49515;BME280;35415;47.870;16.058;2023-03-13T09:36:42;96824.66;;;9.56;76.52
49515;BME280;35415;47.870;16.058;2023-03-13T09:39:10;96862.47;;;9.90;75.79
49515;BME280;35415;47.870;16.058;2023-03-13T09:41:39;96822.75;;;9.72;75.15
49515;BME280;35415;47.870;16.058;2023-03-13T09:44:17;96779.28;;;9.55;75.50
49515;BME280;35415;47.870;16.058;2023-03-13T09:46:58;96854.91;;;10.08;75.78
49515;BME280;35415;47.870;16.058;2023-03-13T09:49:36;96859.44;;;10.17;75.70
49515;BME280;35415;47.870;16.058;2023-03-13T09:52:14;96821.00;;;10.17;75.13
49515;BME280;35415;47.870;16.058;2023-03-13T09:54:48;96842.16;;;10.39;74.11
49515;BME280;35415;47.870;16.058;2023-03-13T09:57:22;96842.13;;;10.49;73.64
49515;BME280;35415;47.870;16.058;2023-03-13T09:59:57;96787.94;;;10.21;73.70
49515;BME280;35415;47.870;16.058;2023-03-13T10:02:30;96800.22;;;10.43;73.84
49515;BME280;35415;47.870;16.058;2023-03-13T10:05:12;96791.88;;;10.44;73.03
49515;BME280;35415;47.870;16.058;2023-03-13T10:07:44;96759.34;;;10.41;72.10
49515;BME280;35415;47.870;16.058;2023-03-13T10:10:15;96804.31;;;10.74;72.94
49515;BME280;35415;47.870;16.058;2023-03-13T10:12:47;96744.75;;;10.52;72.72
49515;BME280;35415;47.870;16.058;2023-03-13T10:15:41;96776.53;;;10.84;73.51
49515;BME280;35415;47.870;16.058;2023-03-13T10:18:14;96758.75;;;10.88;71.40
49515;BME280;35415;47.870;16.058;2023-03-13T10:20:47;96738.81;;;10.89;71.28
49515;BME280;35415;47.870;16.058;2023-03-13T10:23:20;96761.00;;;11.10;71.80
49515;BME280;35415;47.870;16.058;2023-03-13T10:25:49;96802.53;;;11.57;74.16
49515;BME280;35415;47.870;16.058;2023-03-13T10:28:19;96772.75;;;11.48;70.77
49515;BME280;35415;47.870;16.058;2023-03-13T10:30:56;96719.94;;;11.23;68.78
49515;BME280;35415;47.870;16.058;2023-03-13T10:33:31;96779.44;;;11.80;69.58
49515;BME280;35415;47.870;16.058;2023-03-13T10:36:05;96766.25;;;11.78;70.25
49515;BME280;35415;47.870;16.058;2023-03-13T10:38:48;96751.97;;;11.78;69.65
49515;BME280;35415;47.870;16.058;2023-03-13T10:41:27;96760.63;;;11.98;69.74
49515;BME280;35415;47.870;16.058;2023-03-13T10:44:04;96783.53;;;12.20;68.99
49515;BME280;35415;47.870;16.058;2023-03-13T10:46:40;96723.81;;;11.89;67.57
49515;BME280;35415;47.870;16.058;2023-03-13T10:49:14;96722.31;;;12.01;68.08
49515;BME280;35415;47.870;16.058;2023-03-13T10:51:46;96770.88;;;12.39;66.64
49515;BME280;35415;47.870;16.058;2023-03-13T10:54:25;96760.09;;;12.39;66.83
49515;BME280;35415;47.870;16.058;2023-03-13T10:57:09;96722.25;;;12.25;67.12
49515;BME280;35415;47.870;16.058;2023-03-13T10:59:40;96738.16;;;12.46;66.72
49515;BME280;35415;47.870;16.058;2023-03-13T11:02:21;96744.19;;;12.56;67.31
49515;BME280;35415;47.870;16.058;2023-03-13T11:04:48;96807.38;;;13.07;65.79
49515;BME280;35415;47.870;16.058;2023-03-13T11:07:21;96753.94;;;12.90;64.86
49515;BME280;35415;47.870;16.058;2023-03-13T11:10:05;96765.66;;;12.99;65.34
49515;BME280;35415;47.870;16.058;2023-03-13T11:12:46;96747.47;;;13.05;63.91
49515;BME280;35415;47.870;16.058;2023-03-13T11:15:22;96749.53;;;13.13;63.42
49515;BME280;35415;47.870;16.058;2023-03-13T11:18:03;96688.66;;;12.88;61.89
49515;BME280;35415;47.870;16.058;2023-03-13T11:20:35;96684.13;;;12.83;59.39
49515;BME280;35415;47.870;16.058;2023-03-13T11:23:13;96744.69;;;13.29;60.91
49515;BME280;35415;47.870;16.058;2023-03-13T11:25:57;96752.28;;;13.40;57.55
49515;BME280;35415;47.870;16.058;2023-03-13T11:28:42;96736.59;;;13.29;54.54
49515;BME280;35415;47.870;16.058;2023-03-13T11:31:18;96719.84;;;13.27;53.77
49515;BME280;35415;47.870;16.058;2023-03-13T11:33:51;96736.50;;;13.47;53.26
49515;BME280;35415;47.870;16.058;2023-03-13T11:36:29;96696.75;;;13.20;52.59
49515;BME280;35415;47.870;16.058;2023-03-13T11:39:09;96783.06;;;13.72;52.55
49515;BME280;35415;47.870;16.058;2023-03-13T11:41:52;96736.00;;;13.45;52.99
49515;BME280;35415;47.870;16.058;2023-03-13T11:44:44;96680.88;;;13.33;52.84
49515;BME280;35415;47.870;16.058;2023-03-13T11:47:31;96695.78;;;13.30;50.15
49515;BME280;35415;47.870;16.058;2023-03-13T11:50:23;96729.50;;;13.74;50.95
49515;BME280;35415;47.870;16.058;2023-03-13T11:56:05;96736.63;;;13.83;49.04
49515;BME280;35415;47.870;16.058;2023-03-13T11:59:12;96708.19;;;13.72;49.80
49515;BME280;35415;47.870;16.058;2023-03-13T12:01:49;96723.09;;;13.97;48.33
49515;BME280;35415;47.870;16.058;2023-03-13T12:04:19;96748.69;;;14.27;51.90
49515;BME280;35415;47.870;16.058;2023-03-13T12:06:53;96727.56;;;14.15;47.99
49515;BME280;35415;47.870;16.058;2023-03-13T12:09:25;96750.88;;;14.39;47.55
49515;BME280;35415;47.870;16.058;2023-03-13T12:11:59;96704.22;;;14.20;47.40
49515;BME280;35415;47.870;16.058;2023-03-13T12:14:42;96668.59;;;14.04;47.21
49515;BME280;35415;47.870;16.058;2023-03-13T12:17:16;96660.38;;;14.09;46.45
49515;BME280;35415;47.870;16.058;2023-03-13T12:19:54;96709.78;;;14.51;45.33
49515;BME280;35415;47.870;16.058;2023-03-13T12:22:31;96691.53;;;14.42;45.94
49515;BME280;35415;47.870;16.058;2023-03-13T12:25:14;96671.91;;;14.37;45.54
49515;BME280;35415;47.870;16.058;2023-03-13T12:28:17;96708.00;;;14.68;46.71
49515;BME280;35415;47.870;16.058;2023-03-13T12:31:00;96671.94;;;14.59;44.86
49515;BME280;35415;47.870;16.058;2023-03-13T12:33:44;96632.00;;;14.42;45.71
49515;BME280;35415;47.870;16.058;2023-03-13T12:36:21;96686.88;;;15.01;45.36
49515;BME280;35415;47.870;16.058;2023-03-13T12:38:56;96631.34;;;14.59;45.06
49515;BME280;35415;47.870;16.058;2023-03-13T12:42:00;96648.88;;;14.84;45.59
49515;BME280;35415;47.870;16.058;2023-03-13T12:44:38;96635.09;;;14.72;42.76
49515;BME280;35415;47.870;16.058;2023-03-13T12:47:28;96603.97;;;14.61;43.60
49515;BME280;35415;47.870;16.058;2023-03-13T12:50:43;96660.47;;;15.07;45.96
49515;BME280;35415;47.870;16.058;2023-03-13T12:54:13;96702.00;;;15.25;45.26
49515;BME280;35415;47.870;16.058;2023-03-13T12:56:40;96627.38;;;14.88;43.50
49515;BME280;35415;47.870;16.058;2023-03-13T12:59:41;96618.28;;;14.84;43.82
49515;BME280;35415;47.870;16.058;2023-03-13T13:06:03;96683.09;;;15.42;44.69
49515;BME280;35415;47.870;16.058;2023-03-13T13:08:36;96614.81;;;14.92;42.72
49515;BME280;35415;47.870;16.058;2023-03-13T13:16:13;96577.66;;;15.15;44.42
49515;BME280;35415;47.870;16.058;2023-03-13T13:18:03;96628.78;;;15.56;45.03
49515;BME280;35415;47.870;16.058;2023-03-13T13:21:19;96576.44;;;15.29;44.51
49515;BME280;35415;47.870;16.058;2023-03-13T13:55:47;96526.66;;;15.82;42.34
49515;BME280;35415;47.870;16.058;2023-03-13T13:58:46;96597.47;;;16.33;40.72
49515;BME280;35415;47.870;16.058;2023-03-13T14:01:16;96580.56;;;16.18;40.81
49515;BME280;35415;47.870;16.058;2023-03-13T14:04:18;96512.91;;;15.79;41.68
49515;BME280;35415;47.870;16.058;2023-03-13T14:07:04;96505.75;;;15.83;41.37
49515;BME280;35415;47.870;16.058;2023-03-13T14:13:22;96535.06;;;16.24;41.20
49515;BME280;35415;47.870;16.058;2023-03-13T14:16:24;96534.75;;;16.34;41.73
49515;BME280;35415;47.870;16.058;2023-03-13T14:19:25;96476.84;;;16.04;41.29
49515;BME280;35415;47.870;16.058;2023-03-13T14:47:13;96507.41;;;16.48;40.57
49515;BME280;35415;47.870;16.058;2023-03-13T15:00:47;96417.06;;;15.83;38.93
49515;BME280;35415;47.870;16.058;2023-03-13T15:03:28;96409.06;;;15.78;39.11
49515;BME280;35415;47.870;16.058;2023-03-13T15:06:17;96427.44;;;15.81;40.02
49515;BME280;35415;47.870;16.058;2023-03-13T15:09:17;96442.25;;;15.84;40.03
49515;BME280;35415;47.870;16.058;2023-03-13T15:11:58;96421.22;;;15.72;40.75
49515;BME280;35415;47.870;16.058;2023-03-13T15:14:44;96415.16;;;15.67;39.85
49515;BME280;35415;47.870;16.058;2023-03-13T15:17:23;96481.94;;;16.14;39.85
49515;BME280;35415;47.870;16.058;2023-03-13T15:20:16;96444.81;;;15.80;40.67
49515;BME280;35415;47.870;16.058;2023-03-13T15:45:32;96378.97;;;15.19;41.67
49515;BME280;35415;47.870;16.058;2023-03-13T15:48:15;96364.44;;;15.24;42.89
49515;BME280;35415;47.870;16.058;2023-03-13T15:50:44;96417.84;;;15.49;41.36
49515;BME280;35415;47.870;16.058;2023-03-13T15:53:18;96400.94;;;15.26;42.06
49515;BME280;35415;47.870;16.058;2023-03-13T15:55:57;96436.03;;;15.49;42.59
49515;BME280;35415;47.870;16.058;2023-03-13T15:58:43;96431.88;;;15.34;42.11
49515;BME280;35415;47.870;16.058;2023-03-13T16:01:20;96385.47;;;15.01;42.99
49515;BME280;35415;47.870;16.058;2023-03-13T16:03:51;96350.91;;;14.81;42.13
49515;BME280;35415;47.870;16.058;2023-03-13T16:06:20;96426.13;;;15.18;42.86
49515;BME280;35415;47.870;16.058;2023-03-13T16:08:55;96424.06;;;15.15;43.31
49515;BME280;35415;47.870;16.058;2023-03-13T16:11:28;96421.47;;;15.10;42.91
49515;BME280;35415;47.870;16.058;2023-03-13T16:13:58;96460.06;;;15.24;43.15
49515;BME280;35415;47.870;16.058;2023-03-13T16:16:33;96427.22;;;15.00;43.14
49515;BME280;35415;47.870;16.058;2023-03-13T16:19:02;96444.47;;;15.30;43.85